チタ の空港の天気 - METARとTAF

チタ・カダラ空港 ( UIAA / HTA ) - ロシア チタ
飛行場実況気象(Metar)
観測時間05/28 19:00 YAKT (05/28 10:00 UTC)
風向・風速北西 5m/s
視程10km以上
天気現象
全天の4割程度の雲 雲底高度 1520m
気温13℃
湿度24%
気圧999hPa
METARUIAA 281000Z 32005MPS 9999 SCT050CB 13/M07 Q0999 R29/70D NOSIG RMK QFE692/0922
過去の天気等 Google飛行場航空写真 Wunderground天気予報

過去48時間のMETAR

飛行場予報(TAF)
発表時間: 5/28 17:00 YAKT (5/28 08:00 UTC)
予報対象時間: 28日18時 YAKT ~ 29日18時 YAKT
風向・風速北西 8m/s 瞬間風速 15m/s
視程10km以上
全天の8割程度の積乱雲 雲底高度 1010m
28日18時 YAKT ~ 29日9時 YAKT に一時的に
風向・風速北北東 3m/s 瞬間風速 8m/s
29日9時 YAKT ~ 29日18時 YAKT に一時的に
風向・風速北西 3m/s 瞬間風速 8m/s
視程3100m
天気現象弱いしゅう雨
TAF UIAA 280800Z 2809/2909 32008G15MPS 9999 BKN033CB
TEMPO 2809/2824 02003G08MPS
TEMPO 2900/2909 32003G08MPS 3100 -SHRA